M I D A S
Marine Information and Data Acquisition System
Tripno 357 of the Zeeleeuw from 2002-11-08 08:37:10 to 2002-11-08 11:57:04
Back to CruiseResearch ActivitiesStationsMapUnderway DataData graphs

EquipmentUnitsComments
TimeDGPSUTC
LatitudeDGPSDM.mWGS84
LongitudeDGPSDM.mWGS84
SpeedMeteo Stationm/sRelative wind speed
DirectionMeteo StationdegRelative wind direction
TemperatureMeteo Stationdeg CelciusAir temperature
PressureMeteo StationPaAtmospheric pressure
HumidityMeteo Station%Relative humidity
Missing or incorrect values are displayed as -999
Metereological data collected by the RV Zeeleeuw from 2002-11-08 08:37:10 to 2002-11-08 11:57:04
Time Latitude Longitude Speed Direction Temperature Pressure Humidity
2002-11-08 08:38 51°13.767 2°55.696 1.6 339 6.9 101480 85
2002-11-08 08:39 51°13.858 2°55.617 2.1 357 7 101470 85
2002-11-08 08:40 51°13.97 2°55.532 3.9 278 7 101470 85
2002-11-08 08:41 51°14.09 2°55.443 2.9 287 7 101470 85
2002-11-08 08:42 51°14.203 2°55.336 2.4 260 7.1 101470 85
2002-11-08 08:43 51°14.297 2°55.187 7.5 271 7.1 101460 85
2002-11-08 08:44 51°14.396 2°54.986 8.5 288 7.2 101460 85
2002-11-08 08:45 51°14.4 2°54.718 15.6 271 7.3 101410 85
2002-11-08 08:46 51°14.353 2°54.39 14.4 253 7.4 101400 85
2002-11-08 08:47 51°14.242 2°54.084 14.8 247 7.6 101420 85
2002-11-08 08:48 51°14.141 2°53.766 15.4 253 7.6 101410 84
2002-11-08 08:49 51°14.039 2°53.438 15.1 252 7.7 101410 84
2002-11-08 08:50 51°13.941 2°53.104 14.6 253 7.7 101410 84
2002-11-08 08:51 51°13.838 2°52.761 15.4 253 7.8 101410 84
2002-11-08 08:52 51°13.739 2°52.423 16.6 252 7.8 101400 84
2002-11-08 08:53 51°13.64 2°52.087 13.1 257 7.8 101400 84
2002-11-08 08:54 51°13.533 2°51.756 14.6 251 7.9 101400 84
2002-11-08 08:55 51°13.418 2°51.432 16.5 247 8 101400 84
2002-11-08 08:56 51°13.302 2°51.109 13.8 245 8.1 101400 83
2002-11-08 08:57 51°13.183 2°50.775 16.9 244 8.1 101400 83
2002-11-08 08:58 51°13.066 2°50.44 16.1 247 8.1 101400 82
2002-11-08 08:59 51°12.939 2°50.079 15.8 245 8.2 101400 82
2002-11-08 09:00 51°12.819 2°49.739 17.8 248 8.3 101400 82
2002-11-08 09:01 51°12.696 2°49.387 18 244 8.3 101390 82
2002-11-08 09:02 51°12.57 2°49.023 15.9 239 8.3 101400 81
2002-11-08 09:03 51°12.448 2°48.67 17.4 243 8.3 101390 81
2002-11-08 09:04 51°12.329 2°48.324 17 243 8.2 101400 80
2002-11-08 09:05 51°12.208 2°47.965 14.5 251 8.2 101390 81
2002-11-08 09:06 51°12.108 2°47.598 16.7 250 8.2 101390 81
2002-11-08 09:07 51°12.021 2°47.222 15.3 254 8.2 101380 81
2002-11-08 09:08 51°11.933 2°46.845 16.8 253 8.2 101380 82
2002-11-08 09:09 51°11.846 2°46.469 19.2 252 8.3 101380 81
2002-11-08 09:10 51°11.759 2°46.105 16.7 247 8.3 101400 81
2002-11-08 09:11 51°11.67 2°45.716 16.2 250 8.4 101390 82
2002-11-08 09:12 51°11.583 2°45.338 16.3 252 8.3 101380 81
2002-11-08 09:13 51°11.499 2°44.968 18.5 253 8.3 101390 81
2002-11-08 09:14 51°11.413 2°44.596 14.8 258 8.3 101370 81
2002-11-08 09:15 51°11.324 2°44.203 14.2 251 8.3 101380 81
2002-11-08 09:16 51°11.259 2°43.827 15.8 259 8.3 101380 81
2002-11-08 09:17 51°11.197 2°43.428 15.7 258 8.3 101370 81
2002-11-08 09:18 51°11.137 2°43.035 16.3 260 8.3 101370 81
2002-11-08 09:19 51°11.112 2°42.792 11.8 265 8.3 101370 81
2002-11-08 09:20 51°11.096 2°42.683 10.2 296 8.3 101390 81
2002-11-08 09:21 51°11.089 2°42.663 3 310 8.3 101400 81
2002-11-08 09:22 51°11.085 2°42.644 1.5 339 8.4 101400 82
2002-11-08 09:23 51°11.083 2°42.624 1.3 332 8.3 101400 82
2002-11-08 09:24 51°11.09 2°42.589 1.6 336 8.3 101400 81
2002-11-08 09:25 51°11.111 2°42.534 1.5 332 8.2 101400 81
2002-11-08 09:26 51°11.139 2°42.478 7.2 359 8.1 101400 81
2002-11-08 09:27 51°11.164 2°42.436 6.8 348 8.2 101400 82
2002-11-08 09:28 51°11.181 2°42.396 7.1 346 8.3 101390 82
2002-11-08 09:29 51°11.191 2°42.363 3 342 8.3 101380 82
2002-11-08 09:30 51°11.198 2°42.333 1.3 332 8.2 101390 82
2002-11-08 09:31 51°11.202 2°42.305 1.5 320 8.3 101410 82
2002-11-08 09:32 51°11.204 2°42.276 2.4 304 8.3 101400 82
2002-11-08 09:33 51°11.206 2°42.248 4.2 317 8.2 101400 81
2002-11-08 09:34 51°11.209 2°42.223 4.3 306 8.1 101400 81
2002-11-08 09:35 51°11.211 2°42.199 4.1 306 8.2 101400 82
2002-11-08 09:36 51°11.214 2°42.177 5.8 308 8.4 101390 82
2002-11-08 09:37 51°11.214 2°42.158 2.8 333 8.3 101390 82
2002-11-08 09:38 51°11.213 2°42.142 2.9 320 8.4 101390 82
2002-11-08 09:39 51°11.213 2°42.129 4.2 333 8.3 101380 81
2002-11-08 09:40 51°11.213 2°42.118 2.4 323 8.3 101380 81
2002-11-08 09:41 51°11.211 2°42.106 3.3 338 8.4 101390 82
2002-11-08 09:42 51°11.211 2°42.093 6.8 357 8.4 101390 81
2002-11-08 09:43 51°11.211 2°42.08 7 353 8.3 101390 80
2002-11-08 09:44 51°11.212 2°42.065 8.3 356 8.3 101380 81
2002-11-08 09:45 51°11.214 2°42.049 2.3 349 8.3 101390 81
2002-11-08 09:46 51°11.216 2°42.03 2.2 319 8.2 101390 80
2002-11-08 09:47 51°11.216 2°42.012 3.2 306 8.2 101380 81
2002-11-08 09:48 51°11.217 2°41.993 3.3 316 8.3 101390 81
2002-11-08 09:49 51°11.217 2°41.977 1.7 324 8.3 101390 81
2002-11-08 09:50 51°11.218 2°41.961 2.6 324 8.2 101380 80
2002-11-08 09:51 51°11.219 2°41.944 1.6 318 8.1 101380 80
2002-11-08 09:52 51°11.221 2°41.927 2.2 318 8.1 101380 80
2002-11-08 09:53 51°11.223 2°41.91 3 347 8.1 101370 80
2002-11-08 09:54 51°11.225 2°41.893 1.5 324 8.2 101370 81
2002-11-08 09:55 51°11.227 2°41.875 1.9 272 8.1 101370 80
2002-11-08 09:56 51°11.229 2°41.858 4.3 325 8.1 101360 80
2002-11-08 09:57 51°11.229 2°41.842 3.4 323 8.1 101360 81
2002-11-08 09:58 51°11.228 2°41.829 5.3 344 8.2 101360 81
2002-11-08 09:59 51°11.228 2°41.814 2 324 8.2 101360 81
2002-11-08 10:00 51°11.227 2°41.802 1.2 326 8.3 101360 81
2002-11-08 10:01 51°11.228 2°41.79 3.8 338 8.2 101350 81
2002-11-08 10:02 51°11.228 2°41.777 3.2 356 8.2 101360 81
2002-11-08 10:03 51°11.229 2°41.763 4.1 353 8.3 101360 82
2002-11-08 10:04 51°11.23 2°41.748 2 336 8.2 101320 81
2002-11-08 10:05 51°11.23 2°41.734 3.2 329 8.3 101330 81
2002-11-08 10:06 51°11.231 2°41.721 0.7 341 8.2 101330 81
2002-11-08 10:07 51°11.232 2°41.708 1.9 332 8.2 101320 81
2002-11-08 10:08 51°11.233 2°41.696 2.6 334 8.1 101330 80
2002-11-08 10:09 51°11.234 2°41.684 1.1 340 8.1 101320 81
2002-11-08 10:10 51°11.235 2°41.672 1.6 345 8.1 101330 81
2002-11-08 10:11 51°11.235 2°41.663 3 335 8.1 101330 81
2002-11-08 10:12 51°11.235 2°41.654 2.9 346 8.1 101330 82
2002-11-08 10:13 51°11.237 2°41.638 3.9 348 8.1 101310 82
2002-11-08 10:14 51°11.242 2°41.611 2.7 327 8 101320 82
2002-11-08 10:15 51°11.249 2°41.569 4.5 322 8 101320 82
2002-11-08 10:16 51°11.257 2°41.517 5.7 327 8 101320 82
2002-11-08 10:17 51°11.265 2°41.464 10.6 303 7.9 101310 82
2002-11-08 10:18 51°11.275 2°41.408 4.7 321 7.9 101310 82
2002-11-08 10:19 51°11.286 2°41.352 3.6 316 7.9 101310 83
2002-11-08 10:20 51°11.3 2°41.3 1.5 327 8.1 101300 84
2002-11-08 10:21 51°11.316 2°41.256 4.6 346 8 101300 83
2002-11-08 10:22 51°11.334 2°41.215 7.4 350 8 101290 83
2002-11-08 10:23 51°11.359 2°41.174 9 10 8.1 101300 83
2002-11-08 10:24 51°11.402 2°41.178 5.9 84 8.1 101310 83
2002-11-08 10:25 51°11.405 2°41.273 7 131 8.2 101310 83
2002-11-08 10:26 51°11.385 2°41.331 10.4 139 8.3 101310 83
2002-11-08 10:27 51°11.359 2°41.36 10.1 167 8.2 101310 83
2002-11-08 10:28 51°11.335 2°41.373 11.2 170 8.2 101290 82
2002-11-08 10:29 51°11.311 2°41.383 9.5 174 8.2 101290 82
2002-11-08 10:30 51°11.288 2°41.391 11.3 172 8.2 101280 82
2002-11-08 10:31 51°11.26 2°41.407 10.6 175 8.2 101280 83
2002-11-08 10:32 51°11.226 2°41.427 10.1 176 8.2 101270 82
2002-11-08 10:33 51°11.216 2°41.427 10.6 165 8.2 101270 82
2002-11-08 10:34 51°11.206 2°41.428 9.8 163 8.2 101270 82
2002-11-08 10:35 51°11.195 2°41.432 9.1 158 8.3 101270 82
2002-11-08 10:36 51°11.183 2°41.434 11.1 172 8.4 101270 83
2002-11-08 10:37 51°11.172 2°41.434 9.4 168 8.4 101260 83
2002-11-08 10:38 51°11.162 2°41.434 10.1 164 8.4 101260 83
2002-11-08 10:39 51°11.154 2°41.435 10.5 171 8.3 101260 83
2002-11-08 10:40 51°11.146 2°41.434 10.7 169 8.4 101260 84
2002-11-08 10:41 51°11.139 2°41.432 10.8 172 8.3 101260 84
2002-11-08 10:42 51°11.133 2°41.43 9.5 168 8.2 101260 83
2002-11-08 10:43 51°11.129 2°41.429 7.4 148 8.2 101260 84
2002-11-08 10:44 51°11.124 2°41.429 12 161 8.4 101250 85
2002-11-08 10:45 51°11.12 2°41.431 10.3 156 8.1 101250 84
2002-11-08 10:46 51°11.115 2°41.433 10.9 151 8.1 101250 84
2002-11-08 10:47 51°11.109 2°41.436 10.4 155 8 101240 84
2002-11-08 10:48 51°11.101 2°41.439 12.1 168 8.1 101240 84
2002-11-08 10:49 51°11.094 2°41.442 9.1 159 7.9 101230 84
2002-11-08 10:50 51°11.087 2°41.445 11.1 155 7.9 101240 84
2002-11-08 10:51 51°11.081 2°41.446 9.9 161 8 101240 85
2002-11-08 10:52 51°11.074 2°41.447 10.6 165 8 101240 85
2002-11-08 10:53 51°11.069 2°41.448 10.7 158 8 101230 85
2002-11-08 10:54 51°11.064 2°41.448 10.8 155 8.1 101230 85
2002-11-08 10:55 51°11.058 2°41.448 9.5 154 8.2 101220 85
2002-11-08 10:56 51°11.049 2°41.455 9.3 166 8.1 101220 85
2002-11-08 10:57 51°11.033 2°41.475 9.6 164 8.1 101220 85
2002-11-08 10:58 51°10.997 2°41.526 12.1 167 8.1 101210 85
2002-11-08 10:59 51°10.947 2°41.647 11.8 145 8 101200 85
2002-11-08 11:00 51°10.935 2°41.842 8.8 125 8.1 101210 85
2002-11-08 11:01 51°10.989 2°42.1 10 136 8 101230 85
2002-11-08 11:02 51°11.039 2°42.405 9 138 8 101220 85
2002-11-08 11:03 51°11.094 2°42.73 8.1 135 8 101220 85
2002-11-08 11:04 51°11.155 2°43.065 8.6 139 8 101210 85
2002-11-08 11:05 51°11.217 2°43.403 9.1 142 8 101210 85
2002-11-08 11:06 51°11.277 2°43.733 6.8 145 8 101210 86
2002-11-08 11:07 51°11.338 2°44.074 6.7 133 8 101210 86
2002-11-08 11:08 51°11.403 2°44.407 9 133 7.9 101210 86
2002-11-08 11:09 51°11.47 2°44.739 7.3 136 7.9 101200 86
2002-11-08 11:10 51°11.538 2°45.067 8.6 132 7.9 101210 86
2002-11-08 11:11 51°11.604 2°45.402 6.8 140 7.9 101200 86
2002-11-08 11:12 51°11.671 2°45.732 5.9 140 7.9 101200 86
2002-11-08 11:13 51°11.753 2°46.054 6.2 133 7.9 101210 86
2002-11-08 11:14 51°11.851 2°46.366 6.2 129 7.9 101200 86
2002-11-08 11:15 51°11.946 2°46.681 5.6 123 7.9 101200 87
2002-11-08 11:16 51°12.04 2°46.994 6.4 141 7.9 101190 87
2002-11-08 11:17 51°12.134 2°47.308 6.9 134 7.8 101200 86
2002-11-08 11:18 51°12.228 2°47.622 7.3 135 7.8 101180 87
2002-11-08 11:19 51°12.321 2°47.939 6 126 7.9 101190 87
2002-11-08 11:20 51°12.416 2°48.25 6.9 126 7.9 101190 87
2002-11-08 11:21 51°12.507 2°48.564 7 127 8 101180 88
2002-11-08 11:22 51°12.601 2°48.877 7.4 130 7.9 101190 87
2002-11-08 11:23 51°12.695 2°49.198 7.9 134 7.9 101180 87
2002-11-08 11:24 51°12.79 2°49.516 7 133 7.9 101180 88
2002-11-08 11:25 51°12.886 2°49.835 5.5 127 7.9 101170 88
2002-11-08 11:26 51°12.976 2°50.149 6.5 132 7.9 101170 88
2002-11-08 11:27 51°13.069 2°50.464 5.3 120 7.8 101170 88
2002-11-08 11:28 51°13.16 2°50.784 6.8 135 7.8 101170 88
2002-11-08 11:29 51°13.264 2°51.097 8.5 134 7.8 101170 88
2002-11-08 11:30 51°13.364 2°51.408 5.8 118 7.8 101160 88
2002-11-08 11:31 51°13.469 2°51.715 5.9 134 7.8 101160 88
2002-11-08 11:32 51°13.581 2°52.017 7.3 119 7.8 101160 88
2002-11-08 11:33 51°13.695 2°52.323 5.7 136 7.8 101160 88
2002-11-08 11:34 51°13.804 2°52.632 4.6 132 7.7 101150 88
2002-11-08 11:35 51°13.92 2°52.937 9.8 128 7.8 101150 88
2002-11-08 11:36 51°14.034 2°53.242 4.9 139 7.7 101140 88
2002-11-08 11:37 51°14.143 2°53.55 5.5 121 7.7 101150 89
2002-11-08 11:38 51°14.255 2°53.856 5.5 136 7.7 101150 89
2002-11-08 11:39 51°14.33 2°54.17 7.5 152 7.7 101140 89
2002-11-08 11:40 51°14.365 2°54.481 9.5 144 7.7 101120 89
2002-11-08 11:41 51°14.378 2°54.799 8.2 163 7.7 101130 89
2002-11-08 11:42 51°14.337 2°55.096 8.2 205 7.6 101120 89
2002-11-08 11:43 51°14.245 2°55.293 6.4 211 7.6 101130 89
2002-11-08 11:44 51°14.159 2°55.385 10 207 7.5 101130 89
2002-11-08 11:45 51°14.088 2°55.441 7.6 205 7.5 101120 89
2002-11-08 11:46 51°14.026 2°55.487 6.2 220 7.4 101130 89
2002-11-08 11:47 51°13.959 2°55.539 5.2 216 7.4 101130 89
2002-11-08 11:48 51°13.902 2°55.582 7.2 208 7.4 101120 89
2002-11-08 11:49 51°13.848 2°55.622 4.7 194 7.5 101120 89
2002-11-08 11:50 51°13.8 2°55.66 8.1 231 7.5 101110 89
2002-11-08 11:51 51°13.76 2°55.705 6.8 174 7.4 101110 89
2002-11-08 11:52 51°13.729 2°55.765 3.6 181 7.4 101110 89
2002-11-08 11:53 51°13.7 2°55.829 11.6 176 7.4 101120 89
2002-11-08 11:54 51°13.676 2°55.891 3.7 113 7.4 101110 89
2002-11-08 11:55 51°13.667 2°55.939 2.9 146 7.4 101120 90
2002-11-08 11:56 51°13.662 2°55.952 3.5 149 7.3 101110 90